sensor_id;sensor_type;location;lat;lon;timestamp;P1;durP1;ratioP1;P2;durP2;ratioP2
58446;SDS011;44240;51.840;7.258;2022-10-16T00:01:19;15.00;;;7.15;;
58446;SDS011;44240;51.840;7.258;2022-10-16T00:03:47;12.30;;;6.80;;
58446;SDS011;44240;51.840;7.258;2022-10-16T00:06:13;10.85;;;6.18;;
58446;SDS011;44240;51.840;7.258;2022-10-16T00:08:40;10.07;;;6.85;;
58446;SDS011;44240;51.840;7.258;2022-10-16T00:11:07;16.20;;;6.90;;
58446;SDS011;44240;51.840;7.258;2022-10-16T00:13:39;11.90;;;6.50;;
58446;SDS011;44240;51.840;7.258;2022-10-16T00:16:06;9.85;;;5.88;;
58446;SDS011;44240;51.840;7.258;2022-10-16T00:18:33;11.68;;;6.82;;
58446;SDS011;44240;51.840;7.258;2022-10-16T00:21:03;14.77;;;6.97;;
58446;SDS011;44240;51.840;7.258;2022-10-16T00:23:30;11.38;;;6.10;;
58446;SDS011;44240;51.840;7.258;2022-10-16T00:26:00;10.43;;;5.90;;
58446;SDS011;44240;51.840;7.258;2022-10-16T00:28:27;15.93;;;6.50;;
58446;SDS011;44240;51.840;7.258;2022-10-16T00:30:53;10.70;;;5.82;;
58446;SDS011;44240;51.840;7.258;2022-10-16T00:33:19;12.13;;;7.47;;
58446;SDS011;44240;51.840;7.258;2022-10-16T00:35:44;10.27;;;5.60;;
58446;SDS011;44240;51.840;7.258;2022-10-16T00:38:10;13.02;;;7.07;;
58446;SDS011;44240;51.840;7.258;2022-10-16T00:40:36;9.60;;;6.25;;
58446;SDS011;44240;51.840;7.258;2022-10-16T00:43:02;12.98;;;7.03;;
58446;SDS011;44240;51.840;7.258;2022-10-16T00:45:27;11.48;;;6.10;;
58446;SDS011;44240;51.840;7.258;2022-10-16T00:47:53;10.02;;;5.68;;
58446;SDS011;44240;51.840;7.258;2022-10-16T00:50:28;15.10;;;7.55;;
58446;SDS011;44240;51.840;7.258;2022-10-16T00:55:23;11.57;;;5.95;;
58446;SDS011;44240;51.840;7.258;2022-10-16T00:57:49;14.65;;;7.13;;
58446;SDS011;44240;51.840;7.258;2022-10-16T01:00:17;13.27;;;6.05;;
58446;SDS011;44240;51.840;7.258;2022-10-16T01:02:51;14.02;;;6.38;;
58446;SDS011;44240;51.840;7.258;2022-10-16T01:05:19;10.93;;;5.90;;
58446;SDS011;44240;51.840;7.258;2022-10-16T01:10:37;14.05;;;5.93;;
58446;SDS011;44240;51.840;7.258;2022-10-16T01:13:20;16.02;;;6.10;;
58446;SDS011;44240;51.840;7.258;2022-10-16T01:16:25;10.98;;;5.72;;
58446;SDS011;44240;51.840;7.258;2022-10-16T01:18:44;8.48;;;5.10;;
58446;SDS011;44240;51.840;7.258;2022-10-16T01:21:16;14.40;;;5.50;;
58446;SDS011;44240;51.840;7.258;2022-10-16T01:26:50;10.38;;;5.78;;
58446;SDS011;44240;51.840;7.258;2022-10-16T01:29:34;6.85;;;5.32;;
58446;SDS011;44240;51.840;7.258;2022-10-16T01:35:04;7.97;;;5.53;;
58446;SDS011;44240;51.840;7.258;2022-10-16T01:37:38;10.18;;;6.03;;
58446;SDS011;44240;51.840;7.258;2022-10-16T01:40:11;9.00;;;4.93;;
58446;SDS011;44240;51.840;7.258;2022-10-16T01:42:40;18.10;;;5.85;;
58446;SDS011;44240;51.840;7.258;2022-10-16T01:45:09;11.75;;;6.18;;
58446;SDS011;44240;51.840;7.258;2022-10-16T01:47:38;10.55;;;5.50;;
58446;SDS011;44240;51.840;7.258;2022-10-16T01:50:05;6.30;;;4.93;;
58446;SDS011;44240;51.840;7.258;2022-10-16T01:52:34;7.32;;;5.45;;
58446;SDS011;44240;51.840;7.258;2022-10-16T01:55:03;12.05;;;5.40;;
58446;SDS011;44240;51.840;7.258;2022-10-16T01:57:31;8.80;;;4.85;;
58446;SDS011;44240;51.840;7.258;2022-10-16T02:00:03;7.78;;;5.57;;
58446;SDS011;44240;51.840;7.258;2022-10-16T02:02:32;10.75;;;4.95;;
58446;SDS011;44240;51.840;7.258;2022-10-16T02:05:04;7.40;;;4.95;;
58446;SDS011;44240;51.840;7.258;2022-10-16T02:07:35;8.52;;;5.03;;
58446;SDS011;44240;51.840;7.258;2022-10-16T02:10:01;9.82;;;5.05;;
58446;SDS011;44240;51.840;7.258;2022-10-16T02:12:28;7.30;;;4.95;;
58446;SDS011;44240;51.840;7.258;2022-10-16T02:14:58;12.20;;;5.25;;
58446;SDS011;44240;51.840;7.258;2022-10-16T02:17:23;11.52;;;5.40;;
58446;SDS011;44240;51.840;7.258;2022-10-16T02:19:50;7.35;;;4.78;;
58446;SDS011;44240;51.840;7.258;2022-10-16T02:25:02;7.78;;;5.00;;
58446;SDS011;44240;51.840;7.258;2022-10-16T02:27:34;7.63;;;4.90;;
58446;SDS011;44240;51.840;7.258;2022-10-16T02:30:27;13.70;;;5.40;;
58446;SDS011;44240;51.840;7.258;2022-10-16T02:32:58;7.70;;;5.32;;
58446;SDS011;44240;51.840;7.258;2022-10-16T02:35:26;6.07;;;4.35;;
58446;SDS011;44240;51.840;7.258;2022-10-16T02:37:53;7.20;;;4.85;;
58446;SDS011;44240;51.840;7.258;2022-10-16T02:40:20;7.43;;;5.20;;
58446;SDS011;44240;51.840;7.258;2022-10-16T02:42:49;12.20;;;5.45;;
58446;SDS011;44240;51.840;7.258;2022-10-16T02:45:17;12.93;;;5.30;;
58446;SDS011;44240;51.840;7.258;2022-10-16T02:47:43;8.77;;;5.43;;
58446;SDS011;44240;51.840;7.258;2022-10-16T02:50:09;9.85;;;5.28;;
58446;SDS011;44240;51.840;7.258;2022-10-16T02:52:35;11.32;;;4.90;;
58446;SDS011;44240;51.840;7.258;2022-10-16T02:55:00;12.70;;;5.00;;
58446;SDS011;44240;51.840;7.258;2022-10-16T02:57:26;11.05;;;5.32;;
58446;SDS011;44240;51.840;7.258;2022-10-16T02:59:52;8.50;;;5.15;;
58446;SDS011;44240;51.840;7.258;2022-10-16T03:02:18;6.40;;;4.63;;
58446;SDS011;44240;51.840;7.258;2022-10-16T03:04:43;8.40;;;4.78;;
58446;SDS011;44240;51.840;7.258;2022-10-16T03:07:09;12.48;;;4.70;;
58446;SDS011;44240;51.840;7.258;2022-10-16T03:09:34;9.15;;;4.43;;
58446;SDS011;44240;51.840;7.258;2022-10-16T03:12:00;9.25;;;5.00;;
58446;SDS011;44240;51.840;7.258;2022-10-16T03:14:26;9.02;;;4.63;;
58446;SDS011;44240;51.840;7.258;2022-10-16T03:16:51;7.70;;;4.68;;
58446;SDS011;44240;51.840;7.258;2022-10-16T03:19:17;8.38;;;4.95;;
58446;SDS011;44240;51.840;7.258;2022-10-16T03:21:43;8.55;;;4.70;;
58446;SDS011;44240;51.840;7.258;2022-10-16T03:24:09;8.55;;;4.22;;
58446;SDS011;44240;51.840;7.258;2022-10-16T03:26:35;6.93;;;4.40;;
58446;SDS011;44240;51.840;7.258;2022-10-16T03:29:01;6.55;;;4.47;;
58446;SDS011;44240;51.840;7.258;2022-10-16T03:31:28;5.90;;;4.35;;
58446;SDS011;44240;51.840;7.258;2022-10-16T03:33:54;6.65;;;4.38;;
58446;SDS011;44240;51.840;7.258;2022-10-16T03:36:19;6.07;;;4.20;;
58446;SDS011;44240;51.840;7.258;2022-10-16T03:38:45;7.80;;;4.10;;
58446;SDS011;44240;51.840;7.258;2022-10-16T03:41:11;6.20;;;4.20;;
58446;SDS011;44240;51.840;7.258;2022-10-16T03:43:36;6.93;;;4.05;;
58446;SDS011;44240;51.840;7.258;2022-10-16T03:46:02;7.30;;;3.92;;
58446;SDS011;44240;51.840;7.258;2022-10-16T03:48:28;4.70;;;3.47;;
58446;SDS011;44240;51.840;7.258;2022-10-16T03:50:54;5.85;;;3.42;;
58446;SDS011;44240;51.840;7.258;2022-10-16T03:53:20;5.88;;;3.95;;
58446;SDS011;44240;51.840;7.258;2022-10-16T03:55:45;10.18;;;5.18;;
58446;SDS011;44240;51.840;7.258;2022-10-16T03:58:11;5.43;;;3.72;;
58446;SDS011;44240;51.840;7.258;2022-10-16T04:00:43;5.65;;;3.35;;
58446;SDS011;44240;51.840;7.258;2022-10-16T04:03:12;6.45;;;3.88;;
58446;SDS011;44240;51.840;7.258;2022-10-16T04:05:38;8.32;;;3.78;;
58446;SDS011;44240;51.840;7.258;2022-10-16T04:08:04;6.55;;;3.13;;
58446;SDS011;44240;51.840;7.258;2022-10-16T04:10:30;4.95;;;3.70;;
58446;SDS011;44240;51.840;7.258;2022-10-16T04:12:56;5.88;;;3.80;;
58446;SDS011;44240;51.840;7.258;2022-10-16T04:15:22;6.55;;;4.28;;
58446;SDS011;44240;51.840;7.258;2022-10-16T04:17:48;5.68;;;3.17;;
58446;SDS011;44240;51.840;7.258;2022-10-16T04:20:15;4.40;;;3.83;;
58446;SDS011;44240;51.840;7.258;2022-10-16T04:22:40;4.82;;;3.72;;
58446;SDS011;44240;51.840;7.258;2022-10-16T04:25:06;5.28;;;3.35;;
58446;SDS011;44240;51.840;7.258;2022-10-16T04:27:32;3.53;;;3.22;;
58446;SDS011;44240;51.840;7.258;2022-10-16T04:29:58;9.50;;;3.40;;
58446;SDS011;44240;51.840;7.258;2022-10-16T04:32:24;6.18;;;3.25;;
58446;SDS011;44240;51.840;7.258;2022-10-16T04:34:51;9.63;;;3.60;;
58446;SDS011;44240;51.840;7.258;2022-10-16T04:37:16;5.20;;;3.03;;
58446;SDS011;44240;51.840;7.258;2022-10-16T04:39:42;4.18;;;3.13;;
58446;SDS011;44240;51.840;7.258;2022-10-16T04:42:08;4.82;;;2.90;;
58446;SDS011;44240;51.840;7.258;2022-10-16T04:44:34;4.80;;;3.47;;
58446;SDS011;44240;51.840;7.258;2022-10-16T04:46:59;5.28;;;3.10;;
58446;SDS011;44240;51.840;7.258;2022-10-16T04:49:25;3.58;;;3.00;;
58446;SDS011;44240;51.840;7.258;2022-10-16T04:51:51;4.13;;;2.90;;
58446;SDS011;44240;51.840;7.258;2022-10-16T04:54:16;5.20;;;3.30;;
58446;SDS011;44240;51.840;7.258;2022-10-16T04:56:42;4.90;;;3.13;;
58446;SDS011;44240;51.840;7.258;2022-10-16T04:59:12;3.88;;;2.85;;
58446;SDS011;44240;51.840;7.258;2022-10-16T05:01:39;4.78;;;2.88;;
58446;SDS011;44240;51.840;7.258;2022-10-16T05:04:05;3.50;;;2.80;;
58446;SDS011;44240;51.840;7.258;2022-10-16T05:06:30;7.57;;;3.10;;
58446;SDS011;44240;51.840;7.258;2022-10-16T05:08:56;4.78;;;3.42;;
58446;SDS011;44240;51.840;7.258;2022-10-16T05:11:22;4.68;;;3.40;;
58446;SDS011;44240;51.840;7.258;2022-10-16T05:13:47;3.40;;;2.80;;
58446;SDS011;44240;51.840;7.258;2022-10-16T05:16:13;3.67;;;2.83;;
58446;SDS011;44240;51.840;7.258;2022-10-16T05:18:38;5.80;;;3.90;;
58446;SDS011;44240;51.840;7.258;2022-10-16T05:21:04;5.35;;;3.05;;
58446;SDS011;44240;51.840;7.258;2022-10-16T05:23:30;6.72;;;2.40;;
58446;SDS011;44240;51.840;7.258;2022-10-16T05:25:56;4.07;;;2.88;;
58446;SDS011;44240;51.840;7.258;2022-10-16T05:28:24;4.22;;;3.35;;
58446;SDS011;44240;51.840;7.258;2022-10-16T05:30:53;5.22;;;3.33;;
58446;SDS011;44240;51.840;7.258;2022-10-16T05:33:20;5.32;;;2.80;;
58446;SDS011;44240;51.840;7.258;2022-10-16T05:35:46;2.72;;;2.42;;
58446;SDS011;44240;51.840;7.258;2022-10-16T05:38:12;7.75;;;3.20;;
58446;SDS011;44240;51.840;7.258;2022-10-16T05:40:37;3.30;;;2.60;;
58446;SDS011;44240;51.840;7.258;2022-10-16T05:43:03;6.72;;;2.65;;
58446;SDS011;44240;51.840;7.258;2022-10-16T05:45:28;7.25;;;2.92;;
58446;SDS011;44240;51.840;7.258;2022-10-16T05:47:54;4.68;;;2.50;;
58446;SDS011;44240;51.840;7.258;2022-10-16T05:50:19;2.88;;;2.50;;
58446;SDS011;44240;51.840;7.258;2022-10-16T05:52:45;3.33;;;2.63;;
58446;SDS011;44240;51.840;7.258;2022-10-16T05:55:10;3.00;;;2.40;;
58446;SDS011;44240;51.840;7.258;2022-10-16T05:57:36;3.80;;;2.63;;
58446;SDS011;44240;51.840;7.258;2022-10-16T06:00:02;2.90;;;2.63;;
58446;SDS011;44240;51.840;7.258;2022-10-16T06:02:28;4.63;;;3.22;;
58446;SDS011;44240;51.840;7.258;2022-10-16T06:04:54;4.35;;;3.47;;
58446;SDS011;44240;51.840;7.258;2022-10-16T06:07:20;3.22;;;2.80;;
58446;SDS011;44240;51.840;7.258;2022-10-16T06:09:52;3.13;;;2.67;;
58446;SDS011;44240;51.840;7.258;2022-10-16T06:12:18;2.80;;;2.60;;
58446;SDS011;44240;51.840;7.258;2022-10-16T06:14:45;3.03;;;2.35;;
58446;SDS011;44240;51.840;7.258;2022-10-16T06:17:14;3.20;;;2.30;;
58446;SDS011;44240;51.840;7.258;2022-10-16T06:19:42;3.28;;;2.83;;
58446;SDS011;44240;51.840;7.258;2022-10-16T06:22:08;4.10;;;2.78;;
58446;SDS011;44240;51.840;7.258;2022-10-16T06:24:33;6.82;;;2.70;;
58446;SDS011;44240;51.840;7.258;2022-10-16T06:26:59;4.40;;;3.67;;
58446;SDS011;44240;51.840;7.258;2022-10-16T06:29:24;3.30;;;2.50;;
58446;SDS011;44240;51.840;7.258;2022-10-16T06:31:50;2.90;;;2.67;;
58446;SDS011;44240;51.840;7.258;2022-10-16T06:34:15;4.60;;;2.65;;
58446;SDS011;44240;51.840;7.258;2022-10-16T06:36:41;3.70;;;2.88;;
58446;SDS011;44240;51.840;7.258;2022-10-16T06:39:08;2.83;;;2.63;;
58446;SDS011;44240;51.840;7.258;2022-10-16T06:41:34;2.92;;;2.67;;
58446;SDS011;44240;51.840;7.258;2022-10-16T06:43:59;2.53;;;2.33;;
58446;SDS011;44240;51.840;7.258;2022-10-16T06:46:25;5.13;;;3.25;;
58446;SDS011;44240;51.840;7.258;2022-10-16T06:48:54;2.90;;;2.63;;
58446;SDS011;44240;51.840;7.258;2022-10-16T06:51:21;4.22;;;2.58;;
58446;SDS011;44240;51.840;7.258;2022-10-16T06:53:52;4.82;;;3.65;;
58446;SDS011;44240;51.840;7.258;2022-10-16T06:56:23;5.40;;;3.10;;
58446;SDS011;44240;51.840;7.258;2022-10-16T06:58:50;6.63;;;3.63;;
58446;SDS011;44240;51.840;7.258;2022-10-16T07:01:17;7.15;;;3.40;;
58446;SDS011;44240;51.840;7.258;2022-10-16T07:03:45;5.30;;;3.15;;
58446;SDS011;44240;51.840;7.258;2022-10-16T07:06:12;7.40;;;2.95;;
58446;SDS011;44240;51.840;7.258;2022-10-16T07:08:39;6.10;;;3.10;;
58446;SDS011;44240;51.840;7.258;2022-10-16T07:11:07;4.88;;;4.38;;
58446;SDS011;44240;51.840;7.258;2022-10-16T07:13:34;4.18;;;3.58;;
58446;SDS011;44240;51.840;7.258;2022-10-16T07:16:08;5.15;;;3.08;;
58446;SDS011;44240;51.840;7.258;2022-10-16T07:18:41;7.18;;;4.30;;
58446;SDS011;44240;51.840;7.258;2022-10-16T07:21:11;2.92;;;2.67;;
58446;SDS011;44240;51.840;7.258;2022-10-16T07:23:38;6.00;;;3.80;;
58446;SDS011;44240;51.840;7.258;2022-10-16T07:26:05;11.50;;;3.50;;
58446;SDS011;44240;51.840;7.258;2022-10-16T07:28:31;6.07;;;3.72;;
58446;SDS011;44240;51.840;7.258;2022-10-16T07:31:07;5.05;;;3.92;;
58446;SDS011;44240;51.840;7.258;2022-10-16T07:33:36;4.25;;;2.97;;
58446;SDS011;44240;51.840;7.258;2022-10-16T07:36:02;5.82;;;3.22;;
58446;SDS011;44240;51.840;7.258;2022-10-16T07:38:28;3.67;;;2.92;;
58446;SDS011;44240;51.840;7.258;2022-10-16T07:40:57;4.10;;;3.55;;
58446;SDS011;44240;51.840;7.258;2022-10-16T07:43:24;3.72;;;2.70;;
58446;SDS011;44240;51.840;7.258;2022-10-16T07:45:50;4.05;;;3.22;;
58446;SDS011;44240;51.840;7.258;2022-10-16T07:48:16;5.80;;;5.28;;
58446;SDS011;44240;51.840;7.258;2022-10-16T07:50:42;5.68;;;3.90;;
58446;SDS011;44240;51.840;7.258;2022-10-16T07:53:09;3.97;;;3.58;;
58446;SDS011;44240;51.840;7.258;2022-10-16T07:55:35;5.18;;;3.53;;
58446;SDS011;44240;51.840;7.258;2022-10-16T07:58:00;6.03;;;3.22;;
58446;SDS011;44240;51.840;7.258;2022-10-16T08:00:26;5.80;;;4.80;;
58446;SDS011;44240;51.840;7.258;2022-10-16T08:02:51;5.53;;;3.72;;
58446;SDS011;44240;51.840;7.258;2022-10-16T08:05:17;4.93;;;4.03;;
58446;SDS011;44240;51.840;7.258;2022-10-16T08:07:42;5.22;;;3.53;;
58446;SDS011;44240;51.840;7.258;2022-10-16T08:10:16;5.30;;;4.13;;
58446;SDS011;44240;51.840;7.258;2022-10-16T08:12:44;4.32;;;3.35;;
58446;SDS011;44240;51.840;7.258;2022-10-16T08:15:09;4.30;;;3.42;;
58446;SDS011;44240;51.840;7.258;2022-10-16T08:17:35;4.13;;;3.17;;
58446;SDS011;44240;51.840;7.258;2022-10-16T08:20:01;7.55;;;4.95;;
58446;SDS011;44240;51.840;7.258;2022-10-16T08:22:27;5.88;;;3.22;;
58446;SDS011;44240;51.840;7.258;2022-10-16T08:24:53;3.50;;;3.20;;
58446;SDS011;44240;51.840;7.258;2022-10-16T08:27:18;6.07;;;5.10;;
58446;SDS011;44240;51.840;7.258;2022-10-16T08:29:44;4.10;;;3.40;;
58446;SDS011;44240;51.840;7.258;2022-10-16T08:32:09;16.85;;;4.57;;
58446;SDS011;44240;51.840;7.258;2022-10-16T08:34:35;6.07;;;5.63;;
58446;SDS011;44240;51.840;7.258;2022-10-16T08:37:01;4.70;;;2.85;;
58446;SDS011;44240;51.840;7.258;2022-10-16T08:39:27;5.95;;;3.30;;
58446;SDS011;44240;51.840;7.258;2022-10-16T08:42:00;5.43;;;4.47;;
58446;SDS011;44240;51.840;7.258;2022-10-16T08:50:09;8.38;;;6.50;;
58446;SDS011;44240;51.840;7.258;2022-10-16T08:52:38;4.57;;;4.18;;
58446;SDS011;44240;51.840;7.258;2022-10-16T08:55:08;4.60;;;3.40;;
58446;SDS011;44240;51.840;7.258;2022-10-16T08:57:50;7.13;;;6.65;;
58446;SDS011;44240;51.840;7.258;2022-10-16T09:00:16;4.72;;;3.78;;
58446;SDS011;44240;51.840;7.258;2022-10-16T09:02:50;6.03;;;5.63;;
58446;SDS011;44240;51.840;7.258;2022-10-16T09:08:22;6.28;;;5.80;;
58446;SDS011;44240;51.840;7.258;2022-10-16T09:11:02;8.27;;;5.57;;
58446;SDS011;44240;51.840;7.258;2022-10-16T09:16:16;3.63;;;3.28;;
58446;SDS011;44240;51.840;7.258;2022-10-16T09:21:31;7.38;;;4.63;;
58446;SDS011;44240;51.840;7.258;2022-10-16T09:24:07;7.70;;;6.97;;
58446;SDS011;44240;51.840;7.258;2022-10-16T09:26:38;3.40;;;2.75;;
58446;SDS011;44240;51.840;7.258;2022-10-16T09:29:04;2.97;;;2.72;;
58446;SDS011;44240;51.840;7.258;2022-10-16T09:31:29;6.45;;;4.68;;
58446;SDS011;44240;51.840;7.258;2022-10-16T09:33:57;5.05;;;2.88;;
58446;SDS011;44240;51.840;7.258;2022-10-16T09:36:25;3.78;;;2.78;;
58446;SDS011;44240;51.840;7.258;2022-10-16T09:39:06;4.72;;;4.35;;
58446;SDS011;44240;51.840;7.258;2022-10-16T09:41:34;5.80;;;3.67;;
58446;SDS011;44240;51.840;7.258;2022-10-16T09:44:02;3.58;;;3.15;;
58446;SDS011;44240;51.840;7.258;2022-10-16T09:46:34;5.03;;;4.72;;
58446;SDS011;44240;51.840;7.258;2022-10-16T09:49:16;2.47;;;2.33;;
58446;SDS011;44240;51.840;7.258;2022-10-16T09:52:02;3.15;;;2.92;;
58446;SDS011;44240;51.840;7.258;2022-10-16T09:54:29;5.47;;;4.90;;
58446;SDS011;44240;51.840;7.258;2022-10-16T09:57:03;3.30;;;3.00;;
58446;SDS011;44240;51.840;7.258;2022-10-16T09:59:31;5.07;;;3.30;;
58446;SDS011;44240;51.840;7.258;2022-10-16T10:02:00;6.28;;;2.80;;
58446;SDS011;44240;51.840;7.258;2022-10-16T10:04:36;3.03;;;2.83;;
58446;SDS011;44240;51.840;7.258;2022-10-16T10:07:04;2.97;;;1.90;;
58446;SDS011;44240;51.840;7.258;2022-10-16T10:09:31;4.75;;;4.45;;
58446;SDS011;44240;51.840;7.258;2022-10-16T10:12:03;3.20;;;1.90;;
58446;SDS011;44240;51.840;7.258;2022-10-16T10:14:31;2.80;;;1.70;;
58446;SDS011;44240;51.840;7.258;2022-10-16T10:19:53;3.03;;;2.88;;
58446;SDS011;44240;51.840;7.258;2022-10-16T10:22:29;2.90;;;1.83;;
58446;SDS011;44240;51.840;7.258;2022-10-16T10:27:48;4.15;;;2.75;;
58446;SDS011;44240;51.840;7.258;2022-10-16T10:30:36;3.65;;;2.58;;
58446;SDS011;44240;51.840;7.258;2022-10-16T10:36:55;2.55;;;2.20;;
58446;SDS011;44240;51.840;7.258;2022-10-16T10:39:04;3.90;;;2.33;;
58446;SDS011;44240;51.840;7.258;2022-10-16T10:41:42;2.50;;;2.30;;
58446;SDS011;44240;51.840;7.258;2022-10-16T10:47:24;2.78;;;1.85;;
58446;SDS011;44240;51.840;7.258;2022-10-16T10:52:57;4.40;;;4.10;;
58446;SDS011;44240;51.840;7.258;2022-10-16T10:55:46;5.63;;;4.00;;
58446;SDS011;44240;51.840;7.258;2022-10-16T11:01:15;2.40;;;2.20;;
58446;SDS011;44240;51.840;7.258;2022-10-16T11:06:15;6.68;;;3.47;;
58446;SDS011;44240;51.840;7.258;2022-10-16T11:08:59;2.95;;;2.13;;
58446;SDS011;44240;51.840;7.258;2022-10-16T11:11:47;3.40;;;2.75;;
58446;SDS011;44240;51.840;7.258;2022-10-16T11:14:19;2.40;;;1.88;;
58446;SDS011;44240;51.840;7.258;2022-10-16T11:16:56;4.93;;;2.00;;
58446;SDS011;44240;51.840;7.258;2022-10-16T11:19:46;5.70;;;2.63;;
58446;SDS011;44240;51.840;7.258;2022-10-16T11:25:02;3.47;;;1.70;;
58446;SDS011;44240;51.840;7.258;2022-10-16T11:33:54;4.13;;;1.92;;
58446;SDS011;44240;51.840;7.258;2022-10-16T11:41:37;2.13;;;1.92;;
58446;SDS011;44240;51.840;7.258;2022-10-16T11:47:03;3.45;;;2.75;;
58446;SDS011;44240;51.840;7.258;2022-10-16T11:49:57;3.25;;;1.73;;
58446;SDS011;44240;51.840;7.258;2022-10-16T11:52:44;2.25;;;1.38;;
58446;SDS011;44240;51.840;7.258;2022-10-16T11:55:35;3.92;;;1.65;;
58446;SDS011;44240;51.840;7.258;2022-10-16T11:58:04;6.35;;;1.63;;
58446;SDS011;44240;51.840;7.258;2022-10-16T12:00:41;3.05;;;2.85;;
58446;SDS011;44240;51.840;7.258;2022-10-16T12:03:22;2.15;;;1.15;;
58446;SDS011;44240;51.840;7.258;2022-10-16T12:08:51;2.95;;;1.98;;
58446;SDS011;44240;51.840;7.258;2022-10-16T12:11:31;4.60;;;1.10;;
58446;SDS011;44240;51.840;7.258;2022-10-16T12:19:25;2.70;;;1.52;;
58446;SDS011;44240;51.840;7.258;2022-10-16T12:21:54;2.40;;;1.75;;
58446;SDS011;44240;51.840;7.258;2022-10-16T12:24:39;3.88;;;2.65;;
58446;SDS011;44240;51.840;7.258;2022-10-16T12:27:20;3.40;;;2.03;;
58446;SDS011;44240;51.840;7.258;2022-10-16T12:29:57;5.32;;;1.55;;
58446;SDS011;44240;51.840;7.258;2022-10-16T12:32:37;4.20;;;2.08;;
58446;SDS011;44240;51.840;7.258;2022-10-16T12:35:05;2.53;;;1.67;;
58446;SDS011;44240;51.840;7.258;2022-10-16T12:37:41;1.98;;;1.30;;
58446;SDS011;44240;51.840;7.258;2022-10-16T12:42:54;2.47;;;2.17;;
58446;SDS011;44240;51.840;7.258;2022-10-16T12:45:28;5.57;;;1.63;;
58446;SDS011;44240;51.840;7.258;2022-10-16T12:47:56;3.38;;;2.55;;
58446;SDS011;44240;51.840;7.258;2022-10-16T12:52:55;4.63;;;1.67;;
58446;SDS011;44240;51.840;7.258;2022-10-16T12:55:21;5.45;;;1.83;;
58446;SDS011;44240;51.840;7.258;2022-10-16T13:00:45;4.60;;;1.65;;
58446;SDS011;44240;51.840;7.258;2022-10-16T13:15:01;6.28;;;1.25;;
58446;SDS011;44240;51.840;7.258;2022-10-16T13:17:45;3.40;;;1.95;;
58446;SDS011;44240;51.840;7.258;2022-10-16T13:23:03;2.00;;;1.80;;
58446;SDS011;44240;51.840;7.258;2022-10-16T13:28:43;2.58;;;2.17;;
58446;SDS011;44240;51.840;7.258;2022-10-16T13:31:28;3.92;;;2.20;;
58446;SDS011;44240;51.840;7.258;2022-10-16T13:33:58;4.28;;;1.77;;
58446;SDS011;44240;51.840;7.258;2022-10-16T13:36:35;2.25;;;1.58;;
58446;SDS011;44240;51.840;7.258;2022-10-16T13:47:18;3.22;;;1.48;;
58446;SDS011;44240;51.840;7.258;2022-10-16T13:49:45;2.88;;;2.58;;
58446;SDS011;44240;51.840;7.258;2022-10-16T13:52:16;3.55;;;1.42;;
58446;SDS011;44240;51.840;7.258;2022-10-16T13:54:43;2.92;;;1.00;;
58446;SDS011;44240;51.840;7.258;2022-10-16T13:57:12;4.13;;;1.63;;
58446;SDS011;44240;51.840;7.258;2022-10-16T13:59:41;1.85;;;1.75;;
58446;SDS011;44240;51.840;7.258;2022-10-16T14:04:56;4.00;;;1.40;;
58446;SDS011;44240;51.840;7.258;2022-10-16T14:07:26;1.10;;;1.00;;
58446;SDS011;44240;51.840;7.258;2022-10-16T14:09:54;5.47;;;1.17;;
58446;SDS011;44240;51.840;7.258;2022-10-16T14:12:20;9.13;;;2.08;;
58446;SDS011;44240;51.840;7.258;2022-10-16T14:14:51;3.63;;;0.90;;
58446;SDS011;44240;51.840;7.258;2022-10-16T14:17:22;1.83;;;1.02;;
58446;SDS011;44240;51.840;7.258;2022-10-16T14:19:49;2.47;;;1.40;;
58446;SDS011;44240;51.840;7.258;2022-10-16T14:24:54;5.65;;;1.00;;
58446;SDS011;44240;51.840;7.258;2022-10-16T14:27:34;5.32;;;1.00;;
58446;SDS011;44240;51.840;7.258;2022-10-16T14:30:15;7.68;;;1.73;;
58446;SDS011;44240;51.840;7.258;2022-10-16T14:32:52;6.30;;;1.58;;
58446;SDS011;44240;51.840;7.258;2022-10-16T14:35:33;5.45;;;1.02;;
58446;SDS011;44240;51.840;7.258;2022-10-16T14:38:00;5.40;;;1.20;;
58446;SDS011;44240;51.840;7.258;2022-10-16T14:40:31;3.53;;;0.85;;
58446;SDS011;44240;51.840;7.258;2022-10-16T14:42:58;2.95;;;1.08;;
58446;SDS011;44240;51.840;7.258;2022-10-16T14:45:26;5.35;;;1.27;;
58446;SDS011;44240;51.840;7.258;2022-10-16T14:47:57;4.13;;;1.25;;
58446;SDS011;44240;51.840;7.258;2022-10-16T14:50:26;4.25;;;1.30;;
58446;SDS011;44240;51.840;7.258;2022-10-16T14:52:52;2.67;;;1.25;;
58446;SDS011;44240;51.840;7.258;2022-10-16T14:55:18;1.95;;;1.33;;
58446;SDS011;44240;51.840;7.258;2022-10-16T14:57:44;3.65;;;1.02;;
58446;SDS011;44240;51.840;7.258;2022-10-16T15:00:18;4.57;;;1.20;;
58446;SDS011;44240;51.840;7.258;2022-10-16T15:02:46;3.25;;;1.10;;
58446;SDS011;44240;51.840;7.258;2022-10-16T15:07:41;1.45;;;0.88;;
58446;SDS011;44240;51.840;7.258;2022-10-16T15:10:07;5.70;;;1.20;;
58446;SDS011;44240;51.840;7.258;2022-10-16T15:12:32;4.38;;;2.15;;
58446;SDS011;44240;51.840;7.258;2022-10-16T15:14:58;2.65;;;1.05;;
58446;SDS011;44240;51.840;7.258;2022-10-16T15:17:23;4.95;;;1.13;;
58446;SDS011;44240;51.840;7.258;2022-10-16T15:19:49;5.00;;;1.40;;
58446;SDS011;44240;51.840;7.258;2022-10-16T15:22:16;3.92;;;1.52;;
58446;SDS011;44240;51.840;7.258;2022-10-16T15:24:42;5.97;;;1.52;;
58446;SDS011;44240;51.840;7.258;2022-10-16T15:27:07;5.72;;;2.00;;
58446;SDS011;44240;51.840;7.258;2022-10-16T15:29:33;5.25;;;1.20;;
58446;SDS011;44240;51.840;7.258;2022-10-16T15:31:58;3.25;;;1.38;;
58446;SDS011;44240;51.840;7.258;2022-10-16T15:34:24;2.78;;;1.15;;
58446;SDS011;44240;51.840;7.258;2022-10-16T15:36:49;2.70;;;1.38;;
58446;SDS011;44240;51.840;7.258;2022-10-16T15:39:16;4.18;;;1.50;;
58446;SDS011;44240;51.840;7.258;2022-10-16T15:41:43;4.10;;;1.25;;
58446;SDS011;44240;51.840;7.258;2022-10-16T15:44:15;3.13;;;1.52;;
58446;SDS011;44240;51.840;7.258;2022-10-16T15:46:41;3.10;;;1.52;;
58446;SDS011;44240;51.840;7.258;2022-10-16T15:49:07;5.10;;;2.00;;
58446;SDS011;44240;51.840;7.258;2022-10-16T15:51:34;4.47;;;1.55;;
58446;SDS011;44240;51.840;7.258;2022-10-16T15:54:03;3.17;;;1.20;;
58446;SDS011;44240;51.840;7.258;2022-10-16T15:56:29;2.28;;;1.30;;
58446;SDS011;44240;51.840;7.258;2022-10-16T15:58:55;4.97;;;1.55;;
58446;SDS011;44240;51.840;7.258;2022-10-16T16:01:22;7.10;;;1.73;;
58446;SDS011;44240;51.840;7.258;2022-10-16T16:03:47;5.85;;;1.33;;
58446;SDS011;44240;51.840;7.258;2022-10-16T16:06:18;1.88;;;1.10;;
58446;SDS011;44240;51.840;7.258;2022-10-16T16:08:43;3.90;;;2.10;;
58446;SDS011;44240;51.840;7.258;2022-10-16T16:11:10;3.17;;;1.27;;
58446;SDS011;44240;51.840;7.258;2022-10-16T16:13:37;7.53;;;1.10;;
58446;SDS011;44240;51.840;7.258;2022-10-16T16:16:06;2.47;;;1.50;;
58446;SDS011;44240;51.840;7.258;2022-10-16T16:18:33;1.98;;;1.73;;
58446;SDS011;44240;51.840;7.258;2022-10-16T16:20:59;3.53;;;1.73;;
58446;SDS011;44240;51.840;7.258;2022-10-16T16:23:24;6.45;;;1.92;;
58446;SDS011;44240;51.840;7.258;2022-10-16T16:29:00;2.10;;;1.67;;
58446;SDS011;44240;51.840;7.258;2022-10-16T16:31:27;3.70;;;1.70;;
58446;SDS011;44240;51.840;7.258;2022-10-16T16:33:54;5.85;;;1.63;;
58446;SDS011;44240;51.840;7.258;2022-10-16T16:36:21;3.85;;;2.15;;
58446;SDS011;44240;51.840;7.258;2022-10-16T16:38:47;2.78;;;2.05;;
58446;SDS011;44240;51.840;7.258;2022-10-16T16:41:19;3.17;;;2.42;;
58446;SDS011;44240;51.840;7.258;2022-10-16T16:43:46;6.32;;;3.08;;
58446;SDS011;44240;51.840;7.258;2022-10-16T16:46:13;6.97;;;3.42;;
58446;SDS011;44240;51.840;7.258;2022-10-16T16:48:39;4.30;;;3.65;;
58446;SDS011;44240;51.840;7.258;2022-10-16T16:51:06;5.15;;;3.10;;
58446;SDS011;44240;51.840;7.258;2022-10-16T16:53:33;6.85;;;3.78;;
58446;SDS011;44240;51.840;7.258;2022-10-16T16:56:03;5.53;;;4.13;;